Buena Vista Township, New Jersey
Current Conditions -  °F | °C
As of 2:54 AM on Wednesday 22 Oct 2014 (Local Time) from KMIV Reporting Station
Overcast Overcast  
Wind Chill: 56°   Ceiling: 1000
Heat Index: 56°   Visibility: 10mi
Dew Point: 54°   Wind: 0mph
Humidity: 93%   Direction: NA
Pressure: 29.82"   Gusts: NA
Location:  39.531°N, 74.8918°W
Report Text: KMIV 220654Z AUTO 00000KT 10SM OVC010 13/12 A2982 RMK AO2 LTG DSNT E AND SE RAE40 CIG 008V013 SLP096 P0000 T01330122
Loading
Personal Weather Stations






























Interactive Weather Map
Tropical Storm Tracking
New forecast layout! Learn more

10-Day Weather Forecast

Advertisements
Track Severe Weather on mobile